sensor_id;sensor_type;location;lat;lon;timestamp;pressure;altitude;pressure_sealevel;temperature;humidity
5283;BME280;15376;48.540;9.268;2023-05-20T00:00:21;97604.50;;;10.39;100.00
5283;BME280;15376;48.540;9.268;2023-05-20T00:02:47;97607.06;;;10.47;100.00
5283;BME280;15376;48.540;9.268;2023-05-20T00:05:12;97606.41;;;10.45;100.00
5283;BME280;15376;48.540;9.268;2023-05-20T00:07:37;97604.94;;;10.42;100.00
5283;BME280;15376;48.540;9.268;2023-05-20T00:10:03;97596.25;;;10.33;100.00
5283;BME280;15376;48.540;9.268;2023-05-20T00:12:28;97599.44;;;10.29;100.00
5283;BME280;15376;48.540;9.268;2023-05-20T00:14:54;97597.97;;;10.26;100.00
5283;BME280;15376;48.540;9.268;2023-05-20T00:17:19;97602.63;;;10.24;100.00
5283;BME280;15376;48.540;9.268;2023-05-20T00:19:44;97612.19;;;10.33;100.00
5283;BME280;15376;48.540;9.268;2023-05-20T00:22:10;97596.31;;;10.25;100.00
5283;BME280;15376;48.540;9.268;2023-05-20T00:24:35;97598.97;;;10.25;100.00
5283;BME280;15376;48.540;9.268;2023-05-20T00:27:01;97598.97;;;10.25;100.00
5283;BME280;15376;48.540;9.268;2023-05-20T00:29:26;97593.66;;;10.25;100.00
5283;BME280;15376;48.540;9.268;2023-05-20T00:31:52;97591.19;;;10.24;100.00
5283;BME280;15376;48.540;9.268;2023-05-20T00:34:19;97607.56;;;10.27;100.00
5283;BME280;15376;48.540;9.268;2023-05-20T00:36:44;97592.66;;;10.26;100.00
5283;BME280;15376;48.540;9.268;2023-05-20T00:39:10;97595.97;;;10.28;100.00
5283;BME280;15376;48.540;9.268;2023-05-20T00:41:37;97578.75;;;10.16;100.00
5283;BME280;15376;48.540;9.268;2023-05-20T00:44:03;97586.91;;;10.15;100.00
5283;BME280;15376;48.540;9.268;2023-05-20T00:46:28;97593.66;;;10.25;100.00
5283;BME280;15376;48.540;9.268;2023-05-20T00:48:54;97588.88;;;10.21;100.00
5283;BME280;15376;48.540;9.268;2023-05-20T00:51:19;97597.66;;;10.21;100.00
5283;BME280;15376;48.540;9.268;2023-05-20T00:53:45;97596.13;;;10.27;100.00
5283;BME280;15376;48.540;9.268;2023-05-20T00:56:11;97587.53;;;10.25;100.00
5283;BME280;15376;48.540;9.268;2023-05-20T00:58:37;97589.28;;;10.32;100.00
5283;BME280;15376;48.540;9.268;2023-05-20T01:01:03;97578.66;;;10.32;100.00
5283;BME280;15376;48.540;9.268;2023-05-20T01:03:28;97584.09;;;10.39;100.00
5283;BME280;15376;48.540;9.268;2023-05-20T01:05:54;97582.44;;;10.38;100.00
5283;BME280;15376;48.540;9.268;2023-05-20T01:08:21;97580.69;;;10.30;100.00
5283;BME280;15376;48.540;9.268;2023-05-20T01:10:52;97582.88;;;10.27;100.00
5283;BME280;15376;48.540;9.268;2023-05-20T01:13:21;97583.03;;;10.25;100.00
5283;BME280;15376;48.540;9.268;2023-05-20T01:15:48;97578.09;;;10.22;100.00
5283;BME280;15376;48.540;9.268;2023-05-20T01:18:17;97572.16;;;10.12;100.00
5283;BME280;15376;48.540;9.268;2023-05-20T01:20:45;97580.41;;;10.17;100.00
5283;BME280;15376;48.540;9.268;2023-05-20T01:23:13;97556.13;;;10.06;100.00
5283;BME280;15376;48.540;9.268;2023-05-20T01:25:39;97551.16;;;10.02;100.00
5283;BME280;15376;48.540;9.268;2023-05-20T01:28:06;97556.84;;;9.99;100.00
5283;BME280;15376;48.540;9.268;2023-05-20T01:30:34;97564.25;;;10.04;100.00
5283;BME280;15376;48.540;9.268;2023-05-20T01:33:08;97567.91;;;10.03;100.00
5283;BME280;15376;48.540;9.268;2023-05-20T01:35:35;97565.59;;;10.00;100.00
5283;BME280;15376;48.540;9.268;2023-05-20T01:38:02;97567.47;;;9.99;100.00
5283;BME280;15376;48.540;9.268;2023-05-20T01:40:28;97562.22;;;9.91;100.00
5283;BME280;15376;48.540;9.268;2023-05-20T01:42:54;97564.41;;;9.88;100.00
5283;BME280;15376;48.540;9.268;2023-05-20T01:45:22;97562.78;;;9.79;100.00
5283;BME280;15376;48.540;9.268;2023-05-20T01:47:48;97563.78;;;9.78;100.00
5283;BME280;15376;48.540;9.268;2023-05-20T01:50:14;97553.88;;;9.72;100.00
5283;BME280;15376;48.540;9.268;2023-05-20T01:52:39;97549.88;;;9.76;100.00
5283;BME280;15376;48.540;9.268;2023-05-20T01:55:05;97556.53;;;9.72;100.00
5283;BME280;15376;48.540;9.268;2023-05-20T01:57:30;97565.91;;;9.82;100.00
5283;BME280;15376;48.540;9.268;2023-05-20T01:59:55;97531.00;;;9.70;100.00
5283;BME280;15376;48.540;9.268;2023-05-20T02:02:21;97561.91;;;9.86;100.00
5283;BME280;15376;48.540;9.268;2023-05-20T02:04:49;97551.53;;;9.77;100.00
5283;BME280;15376;48.540;9.268;2023-05-20T02:07:15;97553.56;;;9.66;100.00
5283;BME280;15376;48.540;9.268;2023-05-20T02:09:43;97548.53;;;9.57;100.00
5283;BME280;15376;48.540;9.268;2023-05-20T02:12:08;97557.13;;;9.59;100.00
5283;BME280;15376;48.540;9.268;2023-05-20T02:14:35;97538.28;;;9.54;100.00
5283;BME280;15376;48.540;9.268;2023-05-20T02:17:00;97555.88;;;9.69;100.00
5283;BME280;15376;48.540;9.268;2023-05-20T02:19:26;97549.28;;;9.65;100.00
5283;BME280;15376;48.540;9.268;2023-05-20T02:21:51;97541.66;;;9.62;100.00
5283;BME280;15376;48.540;9.268;2023-05-20T02:24:16;97559.53;;;9.68;100.00
5283;BME280;15376;48.540;9.268;2023-05-20T02:26:42;97549.41;;;9.49;100.00
5283;BME280;15376;48.540;9.268;2023-05-20T02:29:09;97564.69;;;9.39;100.00
5283;BME280;15376;48.540;9.268;2023-05-20T02:31:35;97561.94;;;9.24;100.00
5283;BME280;15376;48.540;9.268;2023-05-20T02:34:00;97572.09;;;9.13;100.00
5283;BME280;15376;48.540;9.268;2023-05-20T02:36:25;97569.97;;;9.08;100.00
5283;BME280;15376;48.540;9.268;2023-05-20T02:38:52;97571.28;;;9.04;100.00
5283;BME280;15376;48.540;9.268;2023-05-20T02:41:21;97563.53;;;8.94;100.00
5283;BME280;15376;48.540;9.268;2023-05-20T02:43:46;97518.97;;;8.59;100.00
5283;BME280;15376;48.540;9.268;2023-05-20T02:46:11;97577.13;;;8.91;100.00
5283;BME280;15376;48.540;9.268;2023-05-20T02:48:37;97574.81;;;8.88;100.00
5283;BME280;15376;48.540;9.268;2023-05-20T02:51:02;97558.00;;;8.73;100.00
5283;BME280;15376;48.540;9.268;2023-05-20T02:53:27;97571.16;;;8.89;100.00
5283;BME280;15376;48.540;9.268;2023-05-20T02:55:53;97572.84;;;8.82;100.00
5283;BME280;15376;48.540;9.268;2023-05-20T02:58:18;97569.50;;;8.88;100.00
5283;BME280;15376;48.540;9.268;2023-05-20T03:00:51;97566.53;;;8.91;100.00
5283;BME280;15376;48.540;9.268;2023-05-20T03:03:16;97569.31;;;8.98;100.00
5283;BME280;15376;48.540;9.268;2023-05-20T03:05:41;97561.91;;;8.85;100.00
5283;BME280;15376;48.540;9.268;2023-05-20T03:08:10;97557.16;;;8.73;100.00
5283;BME280;15376;48.540;9.268;2023-05-20T03:10:37;97548.34;;;8.80;100.00
5283;BME280;15376;48.540;9.268;2023-05-20T03:13:04;97572.34;;;8.87;100.00
5283;BME280;15376;48.540;9.268;2023-05-20T03:15:33;97578.13;;;8.82;100.00
5283;BME280;15376;48.540;9.268;2023-05-20T03:17:59;97578.84;;;8.76;100.00
5283;BME280;15376;48.540;9.268;2023-05-20T03:20:24;97563.63;;;8.70;100.00
5283;BME280;15376;48.540;9.268;2023-05-20T03:22:51;97570.56;;;8.71;100.00
5283;BME280;15376;48.540;9.268;2023-05-20T03:25:16;97563.97;;;8.67;100.00
5283;BME280;15376;48.540;9.268;2023-05-20T03:27:41;97567.59;;;8.74;100.00
5283;BME280;15376;48.540;9.268;2023-05-20T03:30:09;97573.34;;;8.86;100.00
5283;BME280;15376;48.540;9.268;2023-05-20T03:32:34;97565.56;;;8.84;100.00
5283;BME280;15376;48.540;9.268;2023-05-20T03:34:59;97558.41;;;8.93;100.00
5283;BME280;15376;48.540;9.268;2023-05-20T03:37:25;97567.34;;;8.92;100.00
5283;BME280;15376;48.540;9.268;2023-05-20T03:39:50;97564.72;;;8.84;100.00
5283;BME280;15376;48.540;9.268;2023-05-20T03:42:15;97549.19;;;8.81;100.00
5283;BME280;15376;48.540;9.268;2023-05-20T03:44:40;97574.31;;;8.93;100.00
5283;BME280;15376;48.540;9.268;2023-05-20T03:47:06;97560.56;;;8.89;100.00
5283;BME280;15376;48.540;9.268;2023-05-20T03:49:31;97560.06;;;8.94;100.00
5283;BME280;15376;48.540;9.268;2023-05-20T03:51:56;97549.47;;;8.94;100.00
5283;BME280;15376;48.540;9.268;2023-05-20T03:54:22;97550.78;;;8.98;100.00
5283;BME280;15376;48.540;9.268;2023-05-20T03:56:47;97559.50;;;9.15;100.00
5283;BME280;15376;48.540;9.268;2023-05-20T03:59:13;97565.75;;;9.22;100.00
5283;BME280;15376;48.540;9.268;2023-05-20T04:01:39;97560.94;;;9.25;100.00
5283;BME280;15376;48.540;9.268;2023-05-20T04:04:04;97561.41;;;9.29;100.00
5283;BME280;15376;48.540;9.268;2023-05-20T04:06:30;97561.41;;;9.29;100.00
5283;BME280;15376;48.540;9.268;2023-05-20T04:08:56;97560.56;;;9.36;100.00
5283;BME280;15376;48.540;9.268;2023-05-20T04:11:21;97549.47;;;9.33;100.00
5283;BME280;15376;48.540;9.268;2023-05-20T04:13:46;97560.03;;;9.41;100.00
5283;BME280;15376;48.540;9.268;2023-05-20T04:16:12;97558.34;;;9.48;100.00
5283;BME280;15376;48.540;9.268;2023-05-20T04:18:37;97551.53;;;9.54;100.00
5283;BME280;15376;48.540;9.268;2023-05-20T04:21:03;97552.00;;;9.57;100.00
5283;BME280;15376;48.540;9.268;2023-05-20T04:23:29;97556.72;;;9.70;100.00
5283;BME280;15376;48.540;9.268;2023-05-20T04:25:54;97565.78;;;9.76;100.00
5283;BME280;15376;48.540;9.268;2023-05-20T04:28:19;97543.56;;;9.77;100.00
5283;BME280;15376;48.540;9.268;2023-05-20T04:30:48;97559.44;;;9.85;100.00
5283;BME280;15376;48.540;9.268;2023-05-20T04:33:14;97552.59;;;9.90;100.00
5283;BME280;15376;48.540;9.268;2023-05-20T04:35:40;97561.34;;;9.99;100.00
5283;BME280;15376;48.540;9.268;2023-05-20T04:38:06;97559.31;;;10.01;100.00
5283;BME280;15376;48.540;9.268;2023-05-20T04:40:32;97559.78;;;10.04;100.00
5283;BME280;15376;48.540;9.268;2023-05-20T04:43:01;97564.38;;;10.11;100.00
5283;BME280;15376;48.540;9.268;2023-05-20T04:45:28;97554.88;;;10.16;100.00
5283;BME280;15376;48.540;9.268;2023-05-20T04:47:53;97560.50;;;10.21;100.00
5283;BME280;15376;48.540;9.268;2023-05-20T04:50:18;97545.41;;;10.22;100.00
5283;BME280;15376;48.540;9.268;2023-05-20T04:52:45;97556.63;;;10.32;100.00
5283;BME280;15376;48.540;9.268;2023-05-20T04:55:11;97560.56;;;10.36;100.00
5283;BME280;15376;48.540;9.268;2023-05-20T04:57:38;97542.22;;;10.26;100.00
5283;BME280;15376;48.540;9.268;2023-05-20T05:00:07;97557.09;;;10.35;100.00
5283;BME280;15376;48.540;9.268;2023-05-20T05:02:34;97553.41;;;10.37;100.00
5283;BME280;15376;48.540;9.268;2023-05-20T05:04:59;97544.81;;;10.34;100.00
5283;BME280;15376;48.540;9.268;2023-05-20T05:07:25;97545.72;;;10.42;100.00
5283;BME280;15376;48.540;9.268;2023-05-20T05:09:50;97543.44;;;10.39;100.00
5283;BME280;15376;48.540;9.268;2023-05-20T05:12:15;97540.78;;;10.39;100.00
5283;BME280;15376;48.540;9.268;2023-05-20T05:14:41;97530.19;;;10.39;100.00
5283;BME280;15376;48.540;9.268;2023-05-20T05:17:06;97535.66;;;10.52;100.00
5283;BME280;15376;48.540;9.268;2023-05-20T05:19:32;97535.59;;;10.60;100.00
5283;BME280;15376;48.540;9.268;2023-05-20T05:21:57;97512.41;;;10.54;100.00
5283;BME280;15376;48.540;9.268;2023-05-20T05:24:22;97516.00;;;10.76;100.00
5283;BME280;15376;48.540;9.268;2023-05-20T05:26:52;97522.78;;;10.93;100.00
5283;BME280;15376;48.540;9.268;2023-05-20T05:29:18;97518.28;;;10.93;100.00
5283;BME280;15376;48.540;9.268;2023-05-20T05:31:43;97513.06;;;11.00;100.00
5283;BME280;15376;48.540;9.268;2023-05-20T05:34:08;97524.59;;;11.07;100.00
5283;BME280;15376;48.540;9.268;2023-05-20T05:36:34;97527.34;;;11.14;100.00
5283;BME280;15376;48.540;9.268;2023-05-20T05:38:59;97499.22;;;11.05;100.00
5283;BME280;15376;48.540;9.268;2023-05-20T05:41:24;97519.13;;;11.30;100.00
5283;BME280;15376;48.540;9.268;2023-05-20T05:43:50;97511.44;;;11.35;100.00
5283;BME280;15376;48.540;9.268;2023-05-20T05:46:16;97508.66;;;11.43;100.00
5283;BME280;15376;48.540;9.268;2023-05-20T05:48:41;97508.81;;;11.56;100.00
5283;BME280;15376;48.540;9.268;2023-05-20T05:51:06;97509.66;;;11.57;100.00
5283;BME280;15376;48.540;9.268;2023-05-20T05:53:32;97497.84;;;11.66;100.00
5283;BME280;15376;48.540;9.268;2023-05-20T05:55:57;97508.75;;;11.71;100.00
5283;BME280;15376;48.540;9.268;2023-05-20T05:58:22;97505.00;;;11.80;100.00
5283;BME280;15376;48.540;9.268;2023-05-20T06:00:50;97505.19;;;11.79;100.00
5283;BME280;15376;48.540;9.268;2023-05-20T06:03:16;97488.72;;;11.90;100.00
5283;BME280;15376;48.540;9.268;2023-05-20T06:05:45;97499.84;;;12.00;100.00
5283;BME280;15376;48.540;9.268;2023-05-20T06:08:11;97489.88;;;12.09;100.00
5283;BME280;15376;48.540;9.268;2023-05-20T06:10:36;97491.31;;;12.32;100.00
5283;BME280;15376;48.540;9.268;2023-05-20T06:13:02;97490.25;;;12.27;100.00
5283;BME280;15376;48.540;9.268;2023-05-20T06:15:27;97484.84;;;12.48;100.00
5283;BME280;15376;48.540;9.268;2023-05-20T06:17:52;97467.50;;;12.59;100.00
5283;BME280;15376;48.540;9.268;2023-05-20T06:20:18;97483.81;;;12.84;100.00
5283;BME280;15376;48.540;9.268;2023-05-20T06:22:43;97481.25;;;13.03;100.00
5283;BME280;15376;48.540;9.268;2023-05-20T06:25:09;97468.59;;;13.12;100.00
5283;BME280;15376;48.540;9.268;2023-05-20T06:27:34;97466.00;;;13.32;100.00
5283;BME280;15376;48.540;9.268;2023-05-20T06:30:00;97475.72;;;13.66;100.00
5283;BME280;15376;48.540;9.268;2023-05-20T06:32:26;97479.06;;;13.88;100.00
5283;BME280;15376;48.540;9.268;2023-05-20T06:34:51;97485.63;;;14.05;100.00
5283;BME280;15376;48.540;9.268;2023-05-20T06:37:17;97475.16;;;14.23;100.00
5283;BME280;15376;48.540;9.268;2023-05-20T06:39:42;97472.50;;;14.30;100.00
5283;BME280;15376;48.540;9.268;2023-05-20T06:42:07;97471.03;;;14.41;100.00
5283;BME280;15376;48.540;9.268;2023-05-20T06:44:33;97454.00;;;14.09;100.00
5283;BME280;15376;48.540;9.268;2023-05-20T06:46:58;97456.06;;;13.87;100.00
5283;BME280;15376;48.540;9.268;2023-05-20T06:49:23;97461.59;;;14.18;100.00
5283;BME280;15376;48.540;9.268;2023-05-20T06:51:49;97455.66;;;14.16;100.00
5283;BME280;15376;48.540;9.268;2023-05-20T06:54:14;97454.00;;;14.42;100.00
5283;BME280;15376;48.540;9.268;2023-05-20T06:56:40;97458.09;;;14.57;100.00
5283;BME280;15376;48.540;9.268;2023-05-20T06:59:05;97451.72;;;14.58;100.00
5283;BME280;15376;48.540;9.268;2023-05-20T07:01:30;97440.19;;;14.71;100.00
5283;BME280;15376;48.540;9.268;2023-05-20T07:03:56;97456.84;;;14.73;100.00
5283;BME280;15376;48.540;9.268;2023-05-20T07:06:21;97449.88;;;14.52;100.00
5283;BME280;15376;48.540;9.268;2023-05-20T07:08:47;97452.75;;;14.11;100.00
5283;BME280;15376;48.540;9.268;2023-05-20T07:11:12;97445.97;;;14.42;100.00
5283;BME280;15376;48.540;9.268;2023-05-20T07:13:37;97445.34;;;14.53;100.00
5283;BME280;15376;48.540;9.268;2023-05-20T07:16:03;97436.31;;;14.54;100.00
5283;BME280;15376;48.540;9.268;2023-05-20T07:18:28;97437.13;;;14.48;100.00
5283;BME280;15376;48.540;9.268;2023-05-20T07:20:54;97434.47;;;14.48;100.00
5283;BME280;15376;48.540;9.268;2023-05-20T07:23:22;97449.84;;;14.72;100.00
5283;BME280;15376;48.540;9.268;2023-05-20T07:25:47;97434.41;;;14.74;100.00
5283;BME280;15376;48.540;9.268;2023-05-20T07:28:14;97446.44;;;15.03;100.00
5283;BME280;15376;48.540;9.268;2023-05-20T07:30:40;97442.69;;;15.17;100.00
5283;BME280;15376;48.540;9.268;2023-05-20T07:33:05;97416.09;;;15.22;100.00
5283;BME280;15376;48.540;9.268;2023-05-20T07:35:31;97426.28;;;15.39;100.00
5283;BME280;15376;48.540;9.268;2023-05-20T07:37:56;97412.88;;;15.77;100.00
5283;BME280;15376;48.540;9.268;2023-05-20T07:40:22;97404.94;;;15.95;100.00
5283;BME280;15376;48.540;9.268;2023-05-20T07:42:47;97398.84;;;16.06;100.00
5283;BME280;15376;48.540;9.268;2023-05-20T07:45:12;97403.38;;;15.81;100.00
5283;BME280;15376;48.540;9.268;2023-05-20T07:47:38;97401.91;;;15.85;100.00
5283;BME280;15376;48.540;9.268;2023-05-20T07:50:03;97400.78;;;15.99;100.00
5283;BME280;15376;48.540;9.268;2023-05-20T07:52:29;97392.28;;;15.77;100.00
5283;BME280;15376;48.540;9.268;2023-05-20T07:54:54;97399.06;;;15.80;100.00
5283;BME280;15376;48.540;9.268;2023-05-20T07:57:20;97398.28;;;15.73;100.00
5283;BME280;15376;48.540;9.268;2023-05-20T07:59:45;97412.97;;;15.95;100.00
5283;BME280;15376;48.540;9.268;2023-05-20T08:02:11;97429.50;;;15.85;100.00
5283;BME280;15376;48.540;9.268;2023-05-20T08:04:36;97417.88;;;15.98;100.00
5283;BME280;15376;48.540;9.268;2023-05-20T08:07:01;97406.28;;;16.04;100.00
5283;BME280;15376;48.540;9.268;2023-05-20T08:09:27;97431.81;;;16.31;100.00
5283;BME280;15376;48.540;9.268;2023-05-20T08:11:52;97427.00;;;16.15;100.00
5283;BME280;15376;48.540;9.268;2023-05-20T08:14:18;97430.31;;;16.36;100.00
5283;BME280;15376;48.540;9.268;2023-05-20T08:16:43;97428.03;;;16.39;100.00
5283;BME280;15376;48.540;9.268;2023-05-20T08:19:08;97428.16;;;16.44;100.00
5283;BME280;15376;48.540;9.268;2023-05-20T08:21:34;97431.50;;;16.40;100.00
5283;BME280;15376;48.540;9.268;2023-05-20T08:23:59;97412.16;;;16.56;99.61
5283;BME280;15376;48.540;9.268;2023-05-20T08:26:25;97426.66;;;16.73;98.39
5283;BME280;15376;48.540;9.268;2023-05-20T08:28:51;97414.63;;;16.57;99.59
5283;BME280;15376;48.540;9.268;2023-05-20T08:31:16;97412.00;;;16.51;99.51
5283;BME280;15376;48.540;9.268;2023-05-20T08:33:42;97405.72;;;16.82;100.00
5283;BME280;15376;48.540;9.268;2023-05-20T08:36:07;97400.72;;;17.04;99.28
5283;BME280;15376;48.540;9.268;2023-05-20T08:38:32;97415.31;;;16.89;98.64
5283;BME280;15376;48.540;9.268;2023-05-20T08:40:58;97403.69;;;16.95;100.00
5283;BME280;15376;48.540;9.268;2023-05-20T08:43:24;97410.44;;;16.68;98.87
5283;BME280;15376;48.540;9.268;2023-05-20T08:45:49;97403.00;;;16.45;98.60
5283;BME280;15376;48.540;9.268;2023-05-20T08:48:18;97412.81;;;16.76;99.10
5283;BME280;15376;48.540;9.268;2023-05-20T08:50:50;97417.84;;;16.84;96.83
5283;BME280;15376;48.540;9.268;2023-05-20T08:53:16;97423.03;;;16.61;95.55
5283;BME280;15376;48.540;9.268;2023-05-20T08:55:44;97426.00;;;16.53;96.59
5283;BME280;15376;48.540;9.268;2023-05-20T08:58:11;97425.03;;;16.72;97.44
5283;BME280;15376;48.540;9.268;2023-05-20T09:00:36;97413.97;;;17.17;92.35
5283;BME280;15376;48.540;9.268;2023-05-20T09:03:02;97409.19;;;17.19;92.01
5283;BME280;15376;48.540;9.268;2023-05-20T09:05:28;97411.22;;;17.35;89.82
5283;BME280;15376;48.540;9.268;2023-05-20T09:08:06;97399.53;;;16.99;90.73
5283;BME280;15376;48.540;9.268;2023-05-20T09:10:33;97389.53;;;17.07;91.44
5283;BME280;15376;48.540;9.268;2023-05-20T09:13:02;97409.63;;;17.46;91.69
5283;BME280;15376;48.540;9.268;2023-05-20T09:15:31;97401.06;;;17.37;90.75
5283;BME280;15376;48.540;9.268;2023-05-20T09:18:00;97404.72;;;17.43;90.46
5283;BME280;15376;48.540;9.268;2023-05-20T09:20:26;97396.94;;;17.64;90.15
5283;BME280;15376;48.540;9.268;2023-05-20T09:22:53;97397.28;;;17.98;89.98
5283;BME280;15376;48.540;9.268;2023-05-20T09:25:19;97389.22;;;17.86;86.85
5283;BME280;15376;48.540;9.268;2023-05-20T09:27:45;97405.63;;;17.66;88.09
5283;BME280;15376;48.540;9.268;2023-05-20T09:30:11;97395.97;;;17.77;87.88
5283;BME280;15376;48.540;9.268;2023-05-20T09:32:37;97394.69;;;18.03;88.46
5283;BME280;15376;48.540;9.268;2023-05-20T09:35:02;97395.75;;;18.02;86.61
5283;BME280;15376;48.540;9.268;2023-05-20T09:37:33;97396.38;;;18.27;86.58
5283;BME280;15376;48.540;9.268;2023-05-20T09:40:02;97388.06;;;18.64;83.24
5283;BME280;15376;48.540;9.268;2023-05-20T09:42:39;97394.38;;;18.70;82.53
5283;BME280;15376;48.540;9.268;2023-05-20T09:45:06;97387.13;;;19.10;81.83
5283;BME280;15376;48.540;9.268;2023-05-20T09:47:34;97389.31;;;18.50;81.13
5283;BME280;15376;48.540;9.268;2023-05-20T09:50:02;97391.69;;;18.35;84.15
5283;BME280;15376;48.540;9.268;2023-05-20T09:52:28;97384.88;;;18.44;82.25
5283;BME280;15376;48.540;9.268;2023-05-20T09:54:55;97379.50;;;18.44;83.27
5283;BME280;15376;48.540;9.268;2023-05-20T09:57:22;97379.22;;;18.80;83.64
5283;BME280;15376;48.540;9.268;2023-05-20T09:59:49;97386.78;;;19.35;79.55
5283;BME280;15376;48.540;9.268;2023-05-20T10:02:15;97382.22;;;19.07;80.73
5283;BME280;15376;48.540;9.268;2023-05-20T10:04:44;97380.19;;;19.14;82.69
5283;BME280;15376;48.540;9.268;2023-05-20T10:07:35;97383.44;;;19.56;83.13
5283;BME280;15376;48.540;9.268;2023-05-20T10:10:47;97378.63;;;20.25;79.12
5283;BME280;15376;48.540;9.268;2023-05-20T10:20:59;97374.84;;;21.52;69.90
5283;BME280;15376;48.540;9.268;2023-05-20T10:23:29;97366.13;;;21.77;73.72
5283;BME280;15376;48.540;9.268;2023-05-20T10:25:56;97379.72;;;23.14;68.38
5283;BME280;15376;48.540;9.268;2023-05-20T10:28:34;97366.84;;;24.02;62.69
5283;BME280;15376;48.540;9.268;2023-05-20T10:31:01;97375.50;;;24.55;59.93
5283;BME280;15376;48.540;9.268;2023-05-20T10:33:27;97373.88;;;24.54;60.10
5283;BME280;15376;48.540;9.268;2023-05-20T10:35:54;97364.06;;;24.73;59.62
5283;BME280;15376;48.540;9.268;2023-05-20T10:38:22;97353.19;;;24.78;57.71
5283;BME280;15376;48.540;9.268;2023-05-20T10:40:47;97352.00;;;25.05;57.00
5283;BME280;15376;48.540;9.268;2023-05-20T10:43:16;97350.16;;;24.80;57.13
5283;BME280;15376;48.540;9.268;2023-05-20T10:45:54;97361.94;;;24.55;59.27
5283;BME280;15376;48.540;9.268;2023-05-20T10:48:32;97352.19;;;25.68;55.79
5283;BME280;15376;48.540;9.268;2023-05-20T10:51:01;97349.44;;;25.23;56.01
5283;BME280;15376;48.540;9.268;2023-05-20T10:53:36;97339.34;;;25.29;55.95
5283;BME280;15376;48.540;9.268;2023-05-20T10:56:02;97332.16;;;23.99;57.07
5283;BME280;15376;48.540;9.268;2023-05-20T10:58:35;97338.06;;;24.42;59.38
5283;BME280;15376;48.540;9.268;2023-05-20T11:01:01;97326.16;;;25.56;54.06
5283;BME280;15376;48.540;9.268;2023-05-20T11:03:28;97328.38;;;25.49;54.58
5283;BME280;15376;48.540;9.268;2023-05-20T11:05:54;97321.00;;;24.01;57.07
5283;BME280;15376;48.540;9.268;2023-05-20T11:08:19;97301.13;;;24.41;56.68
5283;BME280;15376;48.540;9.268;2023-05-20T11:10:45;97298.22;;;24.12;57.99
5283;BME280;15376;48.540;9.268;2023-05-20T11:13:12;97300.94;;;24.97;58.11
5283;BME280;15376;48.540;9.268;2023-05-20T11:15:38;97309.84;;;26.19;52.50
5283;BME280;15376;48.540;9.268;2023-05-20T11:18:04;97308.03;;;25.42;53.05
5283;BME280;15376;48.540;9.268;2023-05-20T11:20:30;97314.84;;;25.34;53.25
5283;BME280;15376;48.540;9.268;2023-05-20T11:22:59;97298.47;;;25.44;51.17
5283;BME280;15376;48.540;9.268;2023-05-20T11:25:25;97302.69;;;25.60;53.37
5283;BME280;15376;48.540;9.268;2023-05-20T11:27:52;97310.41;;;26.16;51.21
5283;BME280;15376;48.540;9.268;2023-05-20T11:30:18;97307.28;;;26.33;51.62
5283;BME280;15376;48.540;9.268;2023-05-20T11:33:01;97310.34;;;26.50;50.30
5283;BME280;15376;48.540;9.268;2023-05-20T11:35:28;97299.00;;;25.85;51.97
5283;BME280;15376;48.540;9.268;2023-05-20T11:37:55;97300.16;;;23.86;54.99
5283;BME280;15376;48.540;9.268;2023-05-20T11:40:25;97293.56;;;23.11;59.99
5283;BME280;15376;48.540;9.268;2023-05-20T11:42:53;97294.44;;;22.59;59.97
5283;BME280;15376;48.540;9.268;2023-05-20T11:45:18;97295.44;;;21.95;62.40
5283;BME280;15376;48.540;9.268;2023-05-20T11:47:43;97295.91;;;21.87;64.51
5283;BME280;15376;48.540;9.268;2023-05-20T11:50:09;97287.81;;;21.87;65.98
5283;BME280;15376;48.540;9.268;2023-05-20T11:52:35;97279.38;;;21.79;66.07
5283;BME280;15376;48.540;9.268;2023-05-20T11:55:01;97258.09;;;21.23;66.37
5283;BME280;15376;48.540;9.268;2023-05-20T11:57:27;97277.22;;;21.17;68.66
5283;BME280;15376;48.540;9.268;2023-05-20T11:59:52;97273.66;;;22.12;67.11
5283;BME280;15376;48.540;9.268;2023-05-20T12:02:17;97266.91;;;22.72;65.20
5283;BME280;15376;48.540;9.268;2023-05-20T12:04:43;97278.34;;;22.94;65.02
5283;BME280;15376;48.540;9.268;2023-05-20T12:07:08;97277.91;;;23.69;63.12
5283;BME280;15376;48.540;9.268;2023-05-20T12:09:34;97265.72;;;23.61;60.00
5283;BME280;15376;48.540;9.268;2023-05-20T12:11:59;97259.91;;;22.81;62.73
5283;BME280;15376;48.540;9.268;2023-05-20T12:14:25;97266.88;;;22.67;63.30
5283;BME280;15376;48.540;9.268;2023-05-20T12:16:50;97238.31;;;23.17;63.04
5283;BME280;15376;48.540;9.268;2023-05-20T12:19:17;97263.16;;;24.95;56.70
5283;BME280;15376;48.540;9.268;2023-05-20T12:21:43;97253.56;;;25.86;54.22
5283;BME280;15376;48.540;9.268;2023-05-20T12:24:11;97275.75;;;26.51;51.97
5283;BME280;15376;48.540;9.268;2023-05-20T12:26:36;97271.59;;;26.35;51.86
5283;BME280;15376;48.540;9.268;2023-05-20T12:29:02;97265.44;;;26.90;50.34
5283;BME280;15376;48.540;9.268;2023-05-20T12:31:27;97258.47;;;26.79;50.90
5283;BME280;15376;48.540;9.268;2023-05-20T12:33:53;97211.94;;;26.57;49.33
5283;BME280;15376;48.540;9.268;2023-05-20T12:36:18;97241.19;;;25.70;51.67
5283;BME280;15376;48.540;9.268;2023-05-20T12:38:44;97242.94;;;25.55;52.29
5283;BME280;15376;48.540;9.268;2023-05-20T12:41:09;97253.59;;;25.81;52.77
5283;BME280;15376;48.540;9.268;2023-05-20T12:43:34;97251.19;;;26.03;50.39
5283;BME280;15376;48.540;9.268;2023-05-20T12:46:01;97247.69;;;26.93;49.62
5283;BME280;15376;48.540;9.268;2023-05-20T12:48:26;97249.19;;;26.62;48.97
5283;BME280;15376;48.540;9.268;2023-05-20T12:50:51;97228.03;;;26.77;48.97
5283;BME280;15376;48.540;9.268;2023-05-20T12:53:17;97250.81;;;26.63;48.53
5283;BME280;15376;48.540;9.268;2023-05-20T12:55:42;97238.16;;;25.37;51.93
5283;BME280;15376;48.540;9.268;2023-05-20T12:58:07;97225.63;;;24.53;54.60
5283;BME280;15376;48.540;9.268;2023-05-20T13:00:34;97224.69;;;25.22;53.63
5283;BME280;15376;48.540;9.268;2023-05-20T13:02:59;97213.31;;;24.71;52.51
5283;BME280;15376;48.540;9.268;2023-05-20T13:05:25;97218.22;;;23.99;55.35
5283;BME280;15376;48.540;9.268;2023-05-20T13:07:50;97203.63;;;23.39;57.47
5283;BME280;15376;48.540;9.268;2023-05-20T13:10:15;97203.06;;;23.02;60.78